createdAt,value
2022-08-07T00:00:35.570Z,20.84
2022-08-07T00:03:13.600Z,20.71
2022-08-07T00:05:53.183Z,20.73
2022-08-07T00:08:44.408Z,20.78
2022-08-07T00:11:32.968Z,20.77
2022-08-07T00:14:18.454Z,20.73
2022-08-07T00:17:02.480Z,20.70
2022-08-07T00:20:00.360Z,20.68
2022-08-07T00:22:40.847Z,20.73
2022-08-07T00:25:37.464Z,20.59
2022-08-07T00:28:24.032Z,20.58
2022-08-07T00:31:12.607Z,20.62
2022-08-07T00:33:47.720Z,20.50
2022-08-07T00:36:27.600Z,20.64
2022-08-07T00:39:06.646Z,20.71
2022-08-07T00:42:05.279Z,20.66
2022-08-07T00:44:49.620Z,20.64
2022-08-07T00:48:08.218Z,20.50
2022-08-07T00:50:46.049Z,20.58
2022-08-07T00:53:50.743Z,20.51
2022-08-07T00:56:33.833Z,20.48
2022-08-07T00:59:10.600Z,20.54
2022-08-07T01:01:44.929Z,20.54
2022-08-07T01:04:24.920Z,20.59
2022-08-07T01:07:01.719Z,20.51
2022-08-07T01:10:05.754Z,20.58
2022-08-07T01:12:53.702Z,20.62
2022-08-07T01:16:05.307Z,20.59
2022-08-07T01:18:52.456Z,20.41
2022-08-07T01:21:36.916Z,20.55
2022-08-07T01:24:18.701Z,20.52
2022-08-07T01:27:00.628Z,20.33
2022-08-07T01:29:34.370Z,20.29
2022-08-07T01:32:19.032Z,20.28
2022-08-07T01:35:11.945Z,20.27
2022-08-07T01:37:56.007Z,20.36
2022-08-07T01:40:36.827Z,20.25
2022-08-07T01:43:20.199Z,20.37
2022-08-07T01:45:56.733Z,20.32
2022-08-07T01:48:41.161Z,20.34
2022-08-07T01:52:02.130Z,20.38
2022-08-07T01:54:58.926Z,20.38
2022-08-07T01:58:05.507Z,20.40
2022-08-07T02:01:25.170Z,20.35
2022-08-07T02:04:02.983Z,20.42
2022-08-07T02:06:44.537Z,20.50
2022-08-07T02:09:52.063Z,20.38
2022-08-07T02:12:30.843Z,20.35
2022-08-07T02:15:18.263Z,20.21
2022-08-07T02:17:56.500Z,20.19
2022-08-07T02:20:41.925Z,20.12
2022-08-07T02:23:30.634Z,20.06
2022-08-07T02:26:33.122Z,20.15
2022-08-07T02:29:21.766Z,20.16
2022-08-07T02:32:01.109Z,20.17
2022-08-07T02:34:48.756Z,20.19
2022-08-07T02:37:26.902Z,20.22
2022-08-07T02:40:29.699Z,20.22
2022-08-07T02:43:14.061Z,20.17
2022-08-07T02:46:02.110Z,20.16
2022-08-07T02:48:39.662Z,20.15
2022-08-07T02:51:42.417Z,20.22
2022-08-07T02:54:29.734Z,20.15
2022-08-07T02:57:13.619Z,20.17
2022-08-07T02:59:54.867Z,20.38
2022-08-07T03:02:54.389Z,20.43
2022-08-07T03:05:37.070Z,20.40
2022-08-07T03:08:09.463Z,20.28
2022-08-07T03:10:49.871Z,20.22
2022-08-07T03:13:29.386Z,20.09
2022-08-07T03:16:14.827Z,20.01
2022-08-07T03:18:50.304Z,19.97
2022-08-07T03:21:33.070Z,20.02
2022-08-07T03:24:27.452Z,19.93
2022-08-07T03:27:09.050Z,19.90
2022-08-07T03:29:53.066Z,19.83
2022-08-07T03:32:32.521Z,19.81
2022-08-07T03:35:17.630Z,19.77
2022-08-07T03:37:59.255Z,19.82
2022-08-07T03:40:44.267Z,19.77
2022-08-07T03:43:20.890Z,19.76
2022-08-07T03:46:18.493Z,19.86
2022-08-07T03:49:03.586Z,19.77
2022-08-07T03:51:47.297Z,19.83
2022-08-07T03:54:35.457Z,19.77
2022-08-07T03:58:35.450Z,19.75
2022-08-07T04:00:33.588Z,19.87
2022-08-07T04:03:19.788Z,19.93
2022-08-07T04:06:00.689Z,19.86
2022-08-07T04:08:53.266Z,19.82
2022-08-07T04:12:26.214Z,19.91
2022-08-07T04:14:43.598Z,20.01
2022-08-07T04:18:11.171Z,20.01
2022-08-07T04:20:35.337Z,20.01
2022-08-07T04:23:18.527Z,19.90
2022-08-07T04:26:00.646Z,20.00
2022-08-07T04:28:35.717Z,20.09
2022-08-07T04:31:08.373Z,20.09
2022-08-07T04:33:55.100Z,20.09
2022-08-07T04:36:35.944Z,20.02
2022-08-07T04:39:12.765Z,20.07
2022-08-07T04:41:50.365Z,20.07
2022-08-07T04:44:28.170Z,20.09
2022-08-07T04:47:57.302Z,20.10
2022-08-07T04:50:43.467Z,20.12
2022-08-07T04:54:06.610Z,20.13
2022-08-07T04:58:11.507Z,20.17
2022-08-07T05:00:24.009Z,20.15
2022-08-07T05:04:01.038Z,20.37
2022-08-07T05:06:43.700Z,20.27
2022-08-07T05:09:46.111Z,20.32
2022-08-07T05:12:46.209Z,20.39
2022-08-07T05:15:42.744Z,20.42
2022-08-07T05:18:42.122Z,20.62
2022-08-07T05:21:59.289Z,20.67
2022-08-07T05:24:39.723Z,20.72
2022-08-07T05:28:15.778Z,20.81
2022-08-07T05:30:32.373Z,21.02
2022-08-07T05:33:13.782Z,21.06
2022-08-07T05:36:00.425Z,21.13
2022-08-07T05:39:00.462Z,21.18
2022-08-07T05:42:02.290Z,21.28
2022-08-07T05:45:04.225Z,21.35
2022-08-07T05:47:38.153Z,21.54
2022-08-07T05:50:45.980Z,21.84
2022-08-07T05:54:13.953Z,22.39
2022-08-07T05:56:29.983Z,22.89
2022-08-07T05:59:09.650Z,22.74
2022-08-07T06:01:51.553Z,22.75
2022-08-07T06:04:29.790Z,22.70
2022-08-07T06:07:12.261Z,22.92
2022-08-07T06:10:06.552Z,23.15
2022-08-07T06:12:51.378Z,23.05
2022-08-07T06:15:39.388Z,23.07
2022-08-07T06:18:31.673Z,23.17
2022-08-07T06:22:15.071Z,23.15
2022-08-07T06:24:45.894Z,22.92
2022-08-07T06:28:00.566Z,22.77
2022-08-07T06:30:46.008Z,23.02
2022-08-07T06:33:30.652Z,23.44
2022-08-07T06:36:27.509Z,24.00
2022-08-07T06:40:13.120Z,23.71
2022-08-07T06:42:32.811Z,23.63
2022-08-07T06:45:39.745Z,23.62
2022-08-07T06:48:24.822Z,23.76
2022-08-07T06:51:09.431Z,23.77
2022-08-07T06:55:29.207Z,23.83
2022-08-07T06:57:12.700Z,23.65
2022-08-07T07:00:12.468Z,23.83
2022-08-07T07:02:57.396Z,23.75
2022-08-07T07:06:05.180Z,23.66
2022-08-07T07:08:36.225Z,23.48
2022-08-07T07:12:07.646Z,23.40
2022-08-07T07:14:08.355Z,23.51
2022-08-07T07:16:53.435Z,23.44
2022-08-07T07:19:56.973Z,23.43
2022-08-07T07:24:05.381Z,23.63
2022-08-07T07:26:35.940Z,23.74
2022-08-07T07:29:56.879Z,24.01
2022-08-07T07:32:02.178Z,24.20
2022-08-07T07:34:56.373Z,24.36
2022-08-07T07:37:49.590Z,24.31
2022-08-07T07:40:37.221Z,24.76
2022-08-07T07:43:18.820Z,24.90
2022-08-07T07:46:39.753Z,24.69
2022-08-07T07:49:00.075Z,24.73
2022-08-07T07:51:58.580Z,24.70
2022-08-07T07:54:36.087Z,24.61
2022-08-07T07:57:21.162Z,24.97
2022-08-07T08:00:28.921Z,25.81
2022-08-07T08:03:16.949Z,25.70
2022-08-07T08:06:19.295Z,25.71
2022-08-07T08:08:54.429Z,26.19
2022-08-07T08:11:59.865Z,26.43
2022-08-07T08:14:42.709Z,26.78
2022-08-07T08:17:57.775Z,27.01
2022-08-07T08:20:22.173Z,26.87
2022-08-07T08:23:30.681Z,27.16
2022-08-07T08:26:36.529Z,26.94
2022-08-07T08:29:08.277Z,26.93
2022-08-07T08:32:17.326Z,26.99
2022-08-07T08:35:01.643Z,27.09
2022-08-07T08:38:00.738Z,27.28
2022-08-07T08:41:05.516Z,26.90
2022-08-07T08:44:18.982Z,27.31
2022-08-07T08:47:19.776Z,27.51
2022-08-07T08:50:34.786Z,27.60
2022-08-07T08:53:19.414Z,27.31
2022-08-07T08:56:04.631Z,27.57
2022-08-07T08:59:12.717Z,27.78
2022-08-07T09:02:14.646Z,27.90
2022-08-07T09:04:51.196Z,27.93
2022-08-07T09:07:58.209Z,27.96
2022-08-07T09:10:45.956Z,28.21
2022-08-07T09:13:50.424Z,27.72
2022-08-07T09:16:47.627Z,27.13
2022-08-07T09:19:52.879Z,27.43
2022-08-07T09:24:31.666Z,27.62
2022-08-07T09:26:36.411Z,27.73
2022-08-07T09:30:05.298Z,28.13
2022-08-07T09:32:42.573Z,28.12
2022-08-07T09:36:04.386Z,28.04
2022-08-07T09:39:55.249Z,27.89
2022-08-07T09:42:41.099Z,28.05
2022-08-07T09:47:55.665Z,27.83
2022-08-07T09:50:02.271Z,28.23
2022-08-07T09:52:55.577Z,28.40
2022-08-07T09:56:03.721Z,28.67
2022-08-07T09:59:07.838Z,28.92
2022-08-07T10:02:24.229Z,29.01
2022-08-07T10:06:00.183Z,28.79
2022-08-07T10:09:09.398Z,28.62
2022-08-07T10:12:21.769Z,29.19
2022-08-07T10:15:18.762Z,29.63
2022-08-07T10:18:31.636Z,30.12
2022-08-07T10:22:12.313Z,30.28
2022-08-07T10:25:23.002Z,30.31
2022-08-07T10:28:02.528Z,30.45
2022-08-07T10:30:58.033Z,30.10
2022-08-07T10:34:15.720Z,29.10
2022-08-07T10:38:00.716Z,29.15
2022-08-07T10:40:49.860Z,29.45
2022-08-07T10:43:45.111Z,29.85
2022-08-07T10:46:42.497Z,29.76
2022-08-07T10:49:24.561Z,29.58
2022-08-07T10:53:21.680Z,29.85
2022-08-07T11:03:02.037Z,29.06
2022-08-07T11:05:50.689Z,28.82
2022-08-07T11:08:46.085Z,28.64
2022-08-07T11:11:41.862Z,28.69
2022-08-07T11:14:59.949Z,28.51
2022-08-07T11:17:43.387Z,28.64
2022-08-07T11:20:50.252Z,28.61
2022-08-07T11:23:38.539Z,28.61
2022-08-07T11:26:50.444Z,28.74
2022-08-07T11:30:10.009Z,28.70
2022-08-07T11:33:01.603Z,28.70
2022-08-07T11:36:30.481Z,28.60
2022-08-07T11:40:01.691Z,28.99
2022-08-07T11:42:59.191Z,29.83
2022-08-07T11:45:53.669Z,30.29
2022-08-07T11:49:27.683Z,30.02
2022-08-07T11:52:37.722Z,30.31
2022-08-07T11:56:25.507Z,29.81
2022-08-07T11:58:59.625Z,30.40
2022-08-07T12:02:20.586Z,30.42
2022-08-07T12:05:41.713Z,30.29
2022-08-07T12:09:01.465Z,29.98
2022-08-07T12:12:08.777Z,30.12
2022-08-07T12:15:46.120Z,30.32
2022-08-07T12:18:31.321Z,30.52
2022-08-07T12:22:36.373Z,30.65
2022-08-07T12:26:00.357Z,30.69
2022-08-07T12:28:33.364Z,30.78
2022-08-07T12:32:02.291Z,30.65
2022-08-07T12:34:55.853Z,30.71
2022-08-07T12:38:10.638Z,30.96
2022-08-07T12:41:42.835Z,30.88
2022-08-07T12:52:39.607Z,30.94
2022-08-07T12:55:40.477Z,30.84
2022-08-07T12:58:19.908Z,30.89
2022-08-07T13:01:15.685Z,31.67
2022-08-07T13:04:34.379Z,31.64
2022-08-07T13:08:14.007Z,31.10
2022-08-07T13:10:59.635Z,31.20
2022-08-07T13:14:23.068Z,31.72
2022-08-07T13:17:42.516Z,31.82
2022-08-07T13:20:44.627Z,32.25
2022-08-07T13:24:00.822Z,32.75
2022-08-07T13:27:05.678Z,32.64
2022-08-07T13:30:03.681Z,32.89
2022-08-07T13:33:00.894Z,33.39
2022-08-07T13:36:01.128Z,33.80
2022-08-07T13:38:55.609Z,34.17
2022-08-07T13:42:00.299Z,34.20
2022-08-07T13:44:55.452Z,33.87
2022-08-07T13:48:05.445Z,32.99
2022-08-07T13:51:01.469Z,31.98
2022-08-07T13:53:59.668Z,32.64
2022-08-07T13:56:51.902Z,33.41
2022-08-07T13:59:39.818Z,32.49
2022-08-07T14:02:29.719Z,32.97
2022-08-07T14:05:12.273Z,32.80
2022-08-07T14:08:01.553Z,33.18
2022-08-07T14:11:02.018Z,33.01
2022-08-07T14:14:05.931Z,33.41
2022-08-07T14:16:49.894Z,33.46
2022-08-07T14:20:41.971Z,32.95
2022-08-07T14:22:49.449Z,33.41
2022-08-07T14:25:39.387Z,33.68
2022-08-07T14:28:16.656Z,33.67
2022-08-07T14:30:58.903Z,33.92
2022-08-07T14:33:44.665Z,34.11
2022-08-07T14:36:28.712Z,34.20
2022-08-07T14:39:12.494Z,34.13
2022-08-07T14:42:31.234Z,33.94
2022-08-07T14:45:21.370Z,33.45
2022-08-07T14:48:05.072Z,32.99
2022-08-07T14:50:53.388Z,32.78
2022-08-07T14:53:49.988Z,32.94
2022-08-07T14:56:41.507Z,33.26
2022-08-07T15:00:03.105Z,33.48
2022-08-07T15:02:37.285Z,33.79
2022-08-07T15:05:23.598Z,33.70
2022-08-07T15:08:04.772Z,33.45
2022-08-07T15:10:58.848Z,32.90
2022-08-07T15:13:41.616Z,33.30
2022-08-07T15:22:33.708Z,34.41
2022-08-07T15:25:36.872Z,33.91
2022-08-07T15:28:34.137Z,33.84
2022-08-07T15:34:28.542Z,34.22
2022-08-07T15:37:28.299Z,33.81
2022-08-07T15:40:11.526Z,33.88
2022-08-07T15:42:55.952Z,33.78
2022-08-07T15:45:55.716Z,33.22
2022-08-07T15:54:49.651Z,33.66
2022-08-07T15:57:48.155Z,33.67
2022-08-07T16:00:33.518Z,33.31
2022-08-07T16:03:47.136Z,33.56
2022-08-07T16:06:36.321Z,33.44
2022-08-07T16:09:42.848Z,33.99
2022-08-07T16:13:04.754Z,33.92
2022-08-07T16:16:42.990Z,34.66
2022-08-07T16:19:59.238Z,35.32
2022-08-07T16:22:55.494Z,35.48
2022-08-07T16:26:09.791Z,34.95
2022-08-07T16:30:09.541Z,35.62
2022-08-07T16:32:54.565Z,35.71
2022-08-07T16:35:56.759Z,36.18
2022-08-07T16:39:02.476Z,35.58
2022-08-07T16:41:57.804Z,33.99
2022-08-07T16:45:30.978Z,33.35
2022-08-07T16:48:34.493Z,32.62
2022-08-07T16:52:51.072Z,31.86
2022-08-07T16:55:47.519Z,32.54
2022-08-07T16:59:10.173Z,32.33
2022-08-07T17:01:56.606Z,31.87
2022-08-07T17:04:51.133Z,31.71
2022-08-07T17:08:01.814Z,32.77
2022-08-07T17:11:18.899Z,33.18
2022-08-07T17:14:19.591Z,33.01
2022-08-07T17:17:01.067Z,32.02
2022-08-07T17:20:01.549Z,31.12
2022-08-07T17:23:00.084Z,30.08
2022-08-07T17:26:35.831Z,29.64
2022-08-07T17:30:14.245Z,29.35
2022-08-07T17:32:59.095Z,28.98
2022-08-07T17:35:57.547Z,28.74
2022-08-07T17:38:37.359Z,28.54
2022-08-07T17:42:02.616Z,28.33
2022-08-07T17:44:50.584Z,28.13
2022-08-07T17:47:43.876Z,28.18
2022-08-07T17:50:42.479Z,28.02
2022-08-07T17:54:02.100Z,27.85
2022-08-07T17:56:49.875Z,27.84
2022-08-07T18:00:13.107Z,27.56
2022-08-07T18:03:26.629Z,27.40
2022-08-07T18:06:16.596Z,27.38
2022-08-07T18:10:05.292Z,27.28
2022-08-07T18:13:09.594Z,27.18
2022-08-07T18:16:34.485Z,27.11
2022-08-07T18:21:06.591Z,27.05
2022-08-07T18:22:55.192Z,27.08
2022-08-07T18:25:39.243Z,27.06
2022-08-07T18:28:34.219Z,26.97
2022-08-07T18:32:04.702Z,26.88
2022-08-07T18:52:44.602Z,26.24
2022-08-07T18:55:41.992Z,26.13
2022-08-07T18:58:34.909Z,26.12
2022-08-07T19:02:18.037Z,25.94
2022-08-07T19:06:02.865Z,25.89
2022-08-07T19:09:09.571Z,25.80
2022-08-07T19:12:57.844Z,25.55
2022-08-07T19:16:04.376Z,25.44
2022-08-07T19:19:12.976Z,25.28
2022-08-07T19:22:04.480Z,25.09
2022-08-07T19:24:50.765Z,25.06
2022-08-07T19:28:58.035Z,25.02
2022-08-07T19:31:03.996Z,24.96
2022-08-07T19:33:43.725Z,24.93
2022-08-07T19:36:52.216Z,24.72
2022-08-07T19:39:56.877Z,24.61
2022-08-07T19:42:40.533Z,24.54
2022-08-07T19:46:04.732Z,24.52
2022-08-07T19:48:53.788Z,24.49
2022-08-07T19:51:52.637Z,24.38
2022-08-07T19:54:45.039Z,24.30
2022-08-07T19:58:04.310Z,24.13
2022-08-07T20:00:57.120Z,24.04
2022-08-07T20:03:59.450Z,23.89
2022-08-07T20:06:46.685Z,23.90
2022-08-07T20:10:37.958Z,23.71
2022-08-07T20:12:34.923Z,23.67
2022-08-07T20:15:22.125Z,23.50
2022-08-07T20:18:14.632Z,23.52
2022-08-07T20:21:20.856Z,23.49
2022-08-07T20:24:08.081Z,23.40
2022-08-07T20:26:51.942Z,23.27
2022-08-07T20:29:48.243Z,23.14
2022-08-07T20:32:40.302Z,23.07
2022-08-07T20:35:26.479Z,23.11
2022-08-07T20:38:01.756Z,23.09
2022-08-07T20:40:54.501Z,23.02
2022-08-07T20:43:47.732Z,22.96
2022-08-07T20:46:44.075Z,22.84
2022-08-07T20:50:00.834Z,22.83
2022-08-07T20:52:50.504Z,22.76
2022-08-07T20:55:35.815Z,22.70
2022-08-07T20:58:19.562Z,22.64
2022-08-07T21:01:19.858Z,22.61
2022-08-07T21:04:21.873Z,22.51
2022-08-07T21:07:14.294Z,22.43
2022-08-07T21:10:00.735Z,22.29
2022-08-07T21:12:43.016Z,22.22
2022-08-07T21:15:47.844Z,22.23
2022-08-07T21:18:46.364Z,22.15
2022-08-07T21:21:56.786Z,21.96
2022-08-07T21:24:50.010Z,21.72
2022-08-07T21:27:46.767Z,21.58
2022-08-07T21:30:31.810Z,21.45
2022-08-07T21:33:52.683Z,21.25
2022-08-07T21:37:13.747Z,21.16
2022-08-07T21:40:07.339Z,21.06
2022-08-07T21:42:53.003Z,21.01
2022-08-07T21:46:10.050Z,20.88
2022-08-07T21:49:21.218Z,20.77
2022-08-07T21:52:16.491Z,20.64
2022-08-07T21:55:14.636Z,20.42
2022-08-07T21:58:53.279Z,20.42
2022-08-07T22:02:10.769Z,20.33
2022-08-07T22:04:54.278Z,20.26
2022-08-07T22:07:58.406Z,20.19
2022-08-07T22:10:42.189Z,20.16
2022-08-07T22:13:24.019Z,20.20
2022-08-07T22:16:45.560Z,20.03
2022-08-07T22:19:31.377Z,19.97
2022-08-07T22:22:27.896Z,19.88
2022-08-07T22:25:26.365Z,19.80
2022-08-07T22:28:31.098Z,19.73
2022-08-07T22:31:55.932Z,19.71
2022-08-07T22:34:55.955Z,19.77
2022-08-07T22:38:05.369Z,19.71
2022-08-07T22:42:03.723Z,19.60
2022-08-07T22:44:35.888Z,19.53
2022-08-07T22:47:58.702Z,19.44
2022-08-07T22:51:15.203Z,19.41
2022-08-07T22:54:14.924Z,19.39
2022-08-07T22:57:25.913Z,19.26
2022-08-07T23:00:12.933Z,19.19
2022-08-07T23:03:09.930Z,19.15
2022-08-07T23:06:14.667Z,19.05
2022-08-07T23:08:58.658Z,18.98
2022-08-07T23:12:34.275Z,18.90
2022-08-07T23:16:06.128Z,18.85
2022-08-07T23:19:15.551Z,18.79
2022-08-07T23:22:21.676Z,18.70
2022-08-07T23:25:29.511Z,18.72
2022-08-07T23:28:29.084Z,18.61
2022-08-07T23:31:06.461Z,18.61
2022-08-07T23:34:23.925Z,18.56
2022-08-07T23:37:20.429Z,18.56
2022-08-07T23:40:29.367Z,18.47
2022-08-07T23:43:17.457Z,18.42
2022-08-07T23:46:11.798Z,18.35
2022-08-07T23:49:24.812Z,18.35
2022-08-07T23:53:06.291Z,18.27
2022-08-07T23:56:21.984Z,18.16
